Main page
METAR-TAF:

METAR-TAF

Airports :

Lydd Airport

Lydd, England

latitude: 50-57N, longitude: 000-56E, elevation: 3 m

Current weather observation

The report was made 34 minutes ago, at 11:20 UTC
Wind 6 kt from the Southwest
Temperature 6°C
Humidity 65%
Pressure 1025 hPa
Visibility 10 km or more

METAR: EGMD 081120Z AUTO 22006KT 9999 NCD 06/M00 Q1025

Time: 11:54 (11:54 UTC)

Forecast

The report was made 57 minutes ago, at 10:57 UTC
Forecast valid from 08 at 12 UTC to 08 at 21 UTC
Wind 5 kt from the West/Northwest
Visibility 10 km or more
Few clouds at a height of 4500 ft

TAF: EGMD 081057Z 0812/0821 29005KT 9999 FEW045

Weather observations and forecasts of more than 4000 airports (METAR and TAF reports).

The available stations are represented by yellow and red dots on the map.

Hover mouse over dot to see the name of the station.

Then click to see weather observations and forecasts.

To change the map : click on the green buttons with a black cross to zoom in, on the green button with a dash to zoom out, or on the green arrows for adjacent maps.


METAR-TAF: